Time;durP1;ratioP1;P1;durP2;ratioP2;P2;SDS_P1;SDS_P2;PMS_P1;PMS_P2;Temp;Humidity;BMP_temperature;BMP_pressure;BME280_temperature;BME280_humidity;BME280_pressure;Samples;Min_cycle;Max_cycle;Signal;HPM_P1;HPM_P2
2022/05/14 00:02:15;;;;;;;4.28;1.25;;;14.00;91.30;;;;;;7337006;19;108052;-82
2022/05/14 00:04:42;;;;;;;6.97;1.30;;;13.90;91.40;;;;;;7339374;19;109130;-82
2022/05/14 00:07:09;;;;;;;4.15;1.40;;;13.80;91.40;;;;;;7340114;19;108236;-82
2022/05/14 00:09:36;;;;;;;6.47;1.23;;;13.80;91.70;;;;;;7340659;19;108761;-82
2022/05/14 00:14:49;;;;;;;7.32;1.40;;;13.70;92.00;;;;;;7339945;19;108079;-82
2022/05/14 00:17:16;;;;;;;4.85;1.45;;;13.60;92.00;;;;;;7337788;19;109055;-82
2022/05/14 00:19:43;;;;;;;4.32;1.50;;;13.60;92.20;;;;;;7340050;19;109128;-82
2022/05/14 00:22:10;;;;;;;3.83;1.20;;;13.60;92.10;;;;;;7338592;19;108216;-82
2022/05/14 00:24:37;;;;;;;6.10;1.80;;;13.50;92.20;;;;;;7338879;19;109125;-82
2022/05/14 00:27:04;;;;;;;;;;;13.50;92.30;;;;;;7338722;19;111287;-82
2022/05/14 00:29:31;;;;;;;4.22;1.50;;;13.40;92.90;;;;;;7342250;19;108594;-82
2022/05/14 00:31:58;;;;;;;6.38;1.65;;;13.30;92.80;;;;;;7339601;19;109291;-81
2022/05/14 00:34:25;;;;;;;7.03;1.77;;;13.30;92.70;;;;;;7344678;19;108102;-81
2022/05/14 00:36:52;;;;;;;9.02;1.50;;;13.30;92.60;;;;;;7338236;19;112898;-82
2022/05/14 00:39:19;;;;;;;5.93;1.40;;;13.30;92.70;;;;;;7338450;19;108128;-82
2022/05/14 00:41:48;;;;;;;;;;;13.30;92.70;;;;;;7339080;19;108617;-82
2022/05/14 00:44:15;;;;;;;5.80;1.73;;;13.20;93.20;;;;;;7341576;19;109200;-81
2022/05/14 00:46:51;;;;;;;3.78;1.50;;;13.20;93.10;;;;;;7335549;19;107595;-81
2022/05/14 00:49:22;;;;;;;4.75;1.60;;;13.20;93.40;;;;;;7337862;19;108530;-81
2022/05/14 00:51:49;;;;;;;7.78;1.58;;;13.10;93.30;;;;;;7337225;19;114210;-82
2022/05/14 00:54:22;;;;;;;4.53;1.65;;;13.10;93.50;;;;;;7337081;19;108343;-82
2022/05/14 00:56:53;;;;;;;5.72;1.42;;;13.00;93.50;;;;;;7342082;19;107768;-81
2022/05/14 00:59:24;;;;;;;7.47;1.80;;;13.00;93.90;;;;;;7335125;19;107348;-81
2022/05/14 01:01:51;;;;;;;4.93;1.50;;;13.00;94.00;;;;;;7337101;19;108225;-82
2022/05/14 01:04:21;;;;;;;3.53;1.50;;;12.90;94.00;;;;;;7336104;19;109673;-82
2022/05/14 01:07:16;;;;;;;6.78;1.50;;;12.90;94.00;;;;;;7334380;19;109716;-82
2022/05/14 01:09:48;;;;;;;4.68;1.60;;;12.90;94.10;;;;;;7337982;19;108209;-82
2022/05/14 01:12:18;;;;;;;7.72;1.60;;;12.90;94.10;;;;;;7338525;19;109122;-82
2022/05/14 01:14:45;;;;;;;8.93;1.90;;;12.90;94.40;;;;;;7338022;19;108022;-81
2022/05/14 01:17:12;;;;;;;6.95;1.60;;;12.80;94.40;;;;;;7345247;19;107271;-82
2022/05/14 01:19:39;;;;;;;4.05;1.73;;;12.80;94.40;;;;;;7344251;19;107599;-81
2022/05/14 01:22:42;;;;;;;3.58;1.38;;;12.70;94.50;;;;;;7341070;19;108288;-81
2022/05/14 01:28:18;;;;;;;8.25;1.40;;;12.60;94.90;;;;;;7341617;19;108620;-81
2022/05/14 01:30:59;;;;;;;5.78;1.60;;;12.60;94.90;;;;;;7344059;19;107966;-82
2022/05/14 01:33:27;;;;;;;5.50;1.45;;;12.60;95.20;;;;;;7339643;19;108312;-82
2022/05/14 01:35:54;;;;;;;6.05;1.70;;;12.50;95.00;;;;;;7343606;19;107999;-82
2022/05/14 01:38:24;;;;;;;6.68;1.65;;;12.50;95.10;;;;;;7343180;19;108352;-82
2022/05/14 01:40:51;;;;;;;4.22;1.20;;;12.50;95.20;;;;;;7348091;19;109093;-82
2022/05/14 01:43:18;;;;;;;4.10;1.40;;;12.50;95.20;;;;;;7339645;19;109226;-82
2022/05/14 01:45:45;;;;;;;7.32;1.52;;;12.40;95.10;;;;;;7341201;19;108976;-82
2022/05/14 01:48:13;;;;;;;4.95;1.42;;;12.40;95.10;;;;;;7341748;19;108477;-81
2022/05/14 01:50:41;;;;;;;8.85;1.67;;;12.40;95.20;;;;;;7343240;19;109167;-81
2022/05/14 01:53:08;;;;;;;5.57;1.48;;;12.40;95.30;;;;;;7342985;19;108826;-81
2022/05/14 01:55:36;;;;;;;3.45;1.33;;;12.30;95.40;;;;;;7340539;19;108693;-82
2022/05/14 01:58:36;;;;;;;5.38;1.58;;;12.30;95.60;;;;;;7340253;19;108617;-82
2022/05/14 02:00:51;;;;;;;8.18;1.90;;;12.30;95.40;;;;;;7344212;19;108891;-81
2022/05/14 02:03:18;;;;;;;7.78;1.52;;;12.30;95.50;;;;;;7348392;19;108266;-81
2022/05/14 02:05:45;;;;;;;5.18;1.73;;;12.30;95.60;;;;;;7341511;19;109482;-82
2022/05/14 02:08:12;;;;;;;;;;;12.20;96.00;;;;;;7343270;19;107965;-81
2022/05/14 02:10:39;;;;;;;5.65;1.60;;;12.10;96.50;;;;;;7343758;19;107859;-81
2022/05/14 02:13:06;;;;;;;11.70;2.10;;;12.10;96.30;;;;;;7341371;19;108947;-81
2022/05/14 02:15:33;;;;;;;4.88;1.60;;;12.10;96.30;;;;;;7343271;19;109127;-82
2022/05/14 02:18:00;;;;;;;5.13;1.70;;;12.00;96.30;;;;;;7341155;19;108446;-81
2022/05/14 02:20:27;;;;;;;8.48;1.88;;;12.00;96.30;;;;;;7341971;19;108966;-81
2022/05/14 02:22:54;;;;;;;;;;;12.00;96.30;;;;;;7339977;19;108010;-81
2022/05/14 02:25:21;;;;;;;6.53;1.63;;;11.90;97.10;;;;;;7351377;19;107847;-82
2022/05/14 02:27:48;;;;;;;8.77;1.80;;;11.90;96.60;;;;;;7342041;19;107762;-81
2022/05/14 02:30:15;;;;;;;;;;;11.80;97.20;;;;;;7339526;19;109076;-81
2022/05/14 02:32:42;;;;;;;7.43;1.70;;;11.70;97.60;;;;;;7345475;19;109359;-81
2022/05/14 02:35:09;;;;;;;6.80;1.92;;;11.50;97.30;;;;;;7342586;19;107224;-82
2022/05/14 02:37:37;;;;;;;5.28;1.70;;;11.60;97.40;;;;;;7341928;19;108343;-82
2022/05/14 02:40:05;;;;;;;5.88;1.58;;;11.60;97.40;;;;;;7340757;19;109058;-82
2022/05/14 02:42:32;;;;;;;6.28;1.83;;;11.60;97.20;;;;;;7341652;19;107988;-82
2022/05/14 02:44:59;;;;;;;5.65;1.90;;;11.60;97.10;;;;;;7340630;19;108842;-81
2022/05/14 02:47:26;;;;;;;4.82;1.67;;;11.50;97.70;;;;;;7345385;19;109204;-81
2022/05/14 02:49:53;;;;;;;6.60;1.58;;;11.40;97.80;;;;;;7341224;19;108181;-81
2022/05/14 02:52:20;;;;;;;8.00;1.65;;;11.40;97.70;;;;;;7340308;19;109883;-81
2022/05/14 02:54:48;;;;;;;3.38;1.58;;;11.40;97.80;;;;;;7339249;19;108241;-81
2022/05/14 02:57:16;;;;;;;3.88;1.65;;;11.40;97.70;;;;;;7339467;19;108194;-82
2022/05/14 02:59:44;;;;;;;6.85;1.38;;;11.30;98.10;;;;;;7341471;19;108854;-82
2022/05/14 03:02:11;;;;;;;5.85;1.52;;;11.20;98.00;;;;;;7341055;19;110652;-81
2022/05/14 03:04:40;;;;;;;4.85;1.63;;;11.20;97.90;;;;;;7341297;19;108186;-82
2022/05/14 03:07:09;;;;;;;7.63;1.75;;;11.20;98.00;;;;;;7338266;19;108158;-81
2022/05/14 03:09:36;;;;;;;3.88;1.50;;;11.20;98.10;;;;;;7345011;19;107306;-82
2022/05/14 03:12:05;;;;;;;5.38;1.48;;;11.20;98.40;;;;;;7338473;19;108915;-81
2022/05/14 03:14:33;;;;;;;7.00;1.52;;;11.10;98.40;;;;;;7338514;19;109686;-81
2022/05/14 03:17:00;;;;;;;5.07;1.60;;;11.10;98.20;;;;;;7339479;19;108960;-81
2022/05/14 03:19:27;;;;;;;5.82;1.95;;;11.10;98.20;;;;;;7341660;19;109264;-81
2022/05/14 03:21:54;;;;;;;6.18;1.88;;;11.20;98.20;;;;;;7339348;19;108047;-81
2022/05/14 03:24:22;;;;;;;5.70;1.75;;;11.20;98.20;;;;;;7340100;19;108400;-82
2022/05/14 03:26:49;;;;;;;5.25;1.95;;;11.20;98.20;;;;;;7339151;19;109657;-82
2022/05/14 03:29:16;;;;;;;6.63;1.70;;;11.20;98.10;;;;;;7345295;19;112407;-82
2022/05/14 03:31:44;;;;;;;6.75;1.85;;;11.20;98.20;;;;;;7341473;19;109114;-82
2022/05/14 03:34:11;;;;;;;7.13;2.00;;;11.20;98.10;;;;;;7340251;19;107764;-80
2022/05/14 03:36:42;;;;;;;8.68;1.63;;;11.20;98.30;;;;;;7341478;19;108502;-80
2022/05/14 03:39:09;;;;;;;5.30;1.90;;;11.20;98.20;;;;;;7338915;19;109518;-80
2022/05/14 03:41:36;;;;;;;8.60;2.05;;;11.20;98.20;;;;;;7339775;19;108280;-80
2022/05/14 03:44:04;;;;;;;9.98;1.95;;;11.20;98.20;;;;;;7339214;19;112053;-81
2022/05/14 03:46:31;;;;;;;5.72;1.80;;;11.20;98.40;;;;;;7338997;19;108870;-80
2022/05/14 03:48:58;;;;;;;7.35;1.92;;;11.20;98.30;;;;;;7337772;19;108217;-79
2022/05/14 03:51:25;;;;;;;7.15;2.03;;;11.20;98.40;;;;;;7342791;19;109852;-80
2022/05/14 03:53:52;;;;;;;6.25;1.80;;;11.20;98.60;;;;;;7339896;19;107873;-80
2022/05/14 03:56:20;;;;;;;7.20;1.92;;;11.10;98.60;;;;;;7337190;19;109909;-80
2022/05/14 03:58:47;;;;;;;4.18;1.75;;;11.10;98.90;;;;;;7337399;19;108915;-80
2022/05/14 04:01:14;;;;;;;6.72;1.70;;;11.10;98.80;;;;;;7339358;19;107754;-80
2022/05/14 04:03:41;;;;;;;6.18;1.85;;;11.10;98.80;;;;;;7340871;19;107881;-80
2022/05/14 04:06:09;;;;;;;8.85;1.67;;;11.10;98.80;;;;;;7339207;19;109505;-80
2022/05/14 04:08:36;;;;;;;10.90;2.20;;;11.10;98.90;;;;;;7339900;19;107807;-80
2022/05/14 04:11:04;;;;;;;5.22;1.70;;;11.00;98.90;;;;;;7337183;19;111616;-80
2022/05/14 04:13:32;;;;;;;6.32;1.67;;;11.00;99.00;;;;;;7344813;19;109220;-80
2022/05/14 04:15:59;;;;;;;8.45;1.90;;;11.00;99.00;;;;;;7339092;19;108141;-80
2022/05/14 04:18:26;;;;;;;9.02;1.88;;;11.00;99.00;;;;;;7337625;19;108900;-80
2022/05/14 04:20:59;;;;;;;10.00;2.08;;;11.10;99.10;;;;;;7339562;19;108693;-80
2022/05/14 04:23:29;;;;;;;9.07;2.03;;;11.10;99.40;;;;;;7339430;19;109397;-80
2022/05/14 04:25:57;;;;;;;9.65;1.88;;;11.10;99.40;;;;;;7339295;19;108763;-80
2022/05/14 04:28:27;;;;;;;12.98;2.00;;;11.10;99.50;;;;;;7337257;19;112217;-79
2022/05/14 04:30:54;;;;;;;15.68;2.70;;;11.00;99.80;;;;;;7335756;19;109680;-80
2022/05/14 04:33:23;;;;;;;8.35;2.05;;;10.90;99.90;;;;;;7337184;19;108379;-80
2022/05/14 04:35:50;;;;;;;7.70;1.75;;;10.90;99.90;;;;;;7344043;19;108282;-80
2022/05/14 04:38:17;;;;;;;10.50;2.10;;;11.00;99.90;;;;;;7336583;19;109008;-81
2022/05/14 04:40:44;;;;;;;11.20;2.00;;;11.10;99.90;;;;;;7337730;19;110096;-81
2022/05/14 04:43:12;;;;;;;;;;;11.20;99.90;;;;;;7338066;19;108230;-81
2022/05/14 04:45:40;;;;;;;6.90;2.15;;;11.20;99.90;;;;;;7342663;19;109105;-81
2022/05/14 04:48:09;;;;;;;12.00;2.10;;;11.30;99.90;;;;;;7336359;19;107304;-80
2022/05/14 04:50:38;;;;;;;12.82;2.35;;;11.40;99.90;;;;;;7335769;19;107929;-80
2022/05/14 04:53:05;;;;;;;6.80;2.13;;;11.40;99.90;;;;;;7340390;19;108854;-80
2022/05/14 04:55:33;;;;;;;6.32;2.10;;;11.50;99.90;;;;;;7345848;19;107995;-81
2022/05/14 04:58:00;;;;;;;9.35;2.20;;;11.60;99.90;;;;;;7346581;19;109064;-81
2022/05/14 05:00:27;;;;;;;9.30;1.70;;;11.60;99.90;;;;;;7345336;19;107941;-81
2022/05/14 05:05:40;;;;;;;13.30;2.30;;;11.80;99.90;;;;;;7346164;19;108618;-80
2022/05/14 05:08:09;;;;;;;10.23;2.25;;;11.80;99.90;;;;;;7340736;19;108311;-80
2022/05/14 05:10:37;;;;;;;7.82;2.58;;;11.90;99.90;;;;;;7342529;19;108247;-80
2022/05/14 05:13:09;;;;;;;14.50;3.10;;;12.00;99.90;;;;;;7343573;19;109081;-80
2022/05/14 05:15:36;;;;;;;12.23;2.50;;;12.10;99.90;;;;;;7345294;19;108174;-80
2022/05/14 05:18:03;;;;;;;10.80;2.80;;;12.20;99.90;;;;;;7348190;19;108360;-81
2022/05/14 05:20:30;;;;;;;10.30;2.20;;;12.30;99.90;;;;;;7344963;19;107871;-80
2022/05/14 05:22:57;;;;;;;17.98;2.90;;;12.40;99.90;;;;;;7342886;19;108367;-80
2022/05/14 05:25:25;;;;;;;10.32;2.83;;;12.50;99.90;;;;;;7345725;19;109437;-81
2022/05/14 05:27:52;;;;;;;14.90;2.80;;;12.60;99.90;;;;;;7342552;19;109378;-80
2022/05/14 05:30:19;;;;;;;;;;;12.70;99.90;;;;;;7345771;19;107841;-80
2022/05/14 05:32:46;;;;;;;10.50;2.60;;;12.80;99.90;;;;;;7348766;19;109293;-80
2022/05/14 05:35:13;;;;;;;9.75;2.45;;;12.90;99.90;;;;;;7345651;19;107113;-80
2022/05/14 05:37:44;;;;;;;12.10;2.67;;;13.00;99.90;;;;;;7343945;19;109809;-80
2022/05/14 05:40:12;;;;;;;8.73;2.80;;;13.10;99.90;;;;;;7349315;19;109327;-81
2022/05/14 05:42:39;;;;;;;13.23;3.00;;;13.20;99.90;;;;;;7341059;19;109825;-80
2022/05/14 05:45:07;;;;;;;13.80;3.38;;;13.30;99.90;;;;;;7344042;19;109195;-80
2022/05/14 05:47:34;;;;;;;12.80;3.42;;;13.40;99.90;;;;;;7342349;19;108524;-81
2022/05/14 05:50:01;;;;;;;;;;;13.50;99.90;;;;;;7344531;19;109128;-81
2022/05/14 05:52:28;;;;;;;11.25;3.28;;;13.50;99.90;;;;;;7345662;19;110483;-81
2022/05/14 05:57:41;;;;;;;17.67;3.58;;;13.70;99.90;;;;;;7341950;19;108251;-82
2022/05/14 06:00:10;;;;;;;13.80;3.55;;;13.80;99.90;;;;;;7343448;19;108965;-82
2022/05/14 06:02:38;;;;;;;15.82;4.20;;;13.90;99.90;;;;;;7347506;19;108251;-81
2022/05/14 06:05:06;;;;;;;12.60;3.88;;;14.00;99.90;;;;;;7343221;19;109021;-81
2022/05/14 06:07:34;;;;;;;10.63;3.78;;;14.10;99.90;;;;;;7341011;19;110009;-81
2022/05/14 06:10:01;;;;;;;17.02;4.60;;;14.20;99.90;;;;;;7340925;19;108775;-81
2022/05/14 06:12:38;;;;;;;12.70;3.92;;;14.20;99.90;;;;;;7342084;19;110130;-81
2022/05/14 06:15:07;;;;;;;12.57;4.82;;;14.30;99.90;;;;;;7339622;19;109095;-80
2022/05/14 06:17:35;;;;;;;11.75;5.18;;;14.40;99.90;;;;;;7341011;19;108546;-81
2022/05/14 06:20:05;;;;;;;13.93;4.63;;;14.60;99.90;;;;;;7341035;19;108480;-81
2022/05/14 06:22:32;;;;;;;15.63;4.90;;;14.70;99.90;;;;;;7344996;19;107901;-81
2022/05/14 06:24:59;;;;;;;15.27;5.15;;;14.80;99.90;;;;;;7348043;19;108219;-83
2022/05/14 06:27:26;;;;;;;18.27;5.50;;;14.90;99.90;;;;;;7340740;19;108350;-84
2022/05/14 06:29:53;;;;;;;13.93;5.88;;;15.00;99.90;;;;;;7342508;19;108292;-84
2022/05/14 06:32:20;;;;;;;;;;;15.00;99.90;;;;;;7343037;19;111374;-83
2022/05/14 06:34:47;;;;;;;18.38;5.75;;;15.10;99.90;;;;;;7345662;19;108667;-83
2022/05/14 06:37:14;;;;;;;19.63;5.47;;;15.10;99.90;;;;;;7340587;19;107726;-84
2022/05/14 06:39:42;;;;;;;19.10;5.47;;;15.20;99.90;;;;;;7340457;19;108867;-84
2022/05/14 06:42:11;;;;;;;25.05;5.97;;;15.40;99.90;;;;;;7340185;19;108120;-84
2022/05/14 06:44:38;;;;;;;28.40;5.95;;;15.50;99.90;;;;;;7339833;19;108994;-83
2022/05/14 06:47:06;;;;;;;17.00;6.05;;;15.50;99.90;;;;;;7346601;19;108901;-83
2022/05/14 06:49:36;;;;;;;19.33;5.57;;;15.60;99.90;;;;;;7341461;19;107581;-83
2022/05/14 06:52:05;;;;;;;14.88;5.50;;;15.70;99.90;;;;;;7341064;19;109059;-83
2022/05/14 06:54:36;;;;;;;20.08;5.97;;;15.80;99.90;;;;;;7337418;19;108552;-83
2022/05/14 06:57:04;;;;;;;19.02;6.15;;;15.90;99.90;;;;;;7341416;19;108821;-83
2022/05/14 06:59:33;;;;;;;20.13;6.90;;;15.90;99.90;;;;;;7341625;19;108386;-84
2022/05/14 07:02:01;;;;;;;16.75;5.75;;;16.10;99.90;;;;;;7339531;19;108494;-82
2022/05/14 07:07:17;;;;;;;21.63;6.13;;;16.30;99.90;;;;;;7341632;19;109538;-82
2022/05/14 07:09:44;;;;;;;20.58;6.57;;;16.40;99.90;;;;;;7343867;19;108455;-83
2022/05/14 07:12:12;;;;;;;17.75;6.43;;;16.50;99.90;;;;;;7340644;19;108002;-83
2022/05/14 07:14:46;;;;;;;19.00;5.50;;;16.60;99.90;;;;;;7340033;19;107790;-83
2022/05/14 07:17:13;;;;;;;16.05;5.85;;;16.70;99.90;;;;;;7339091;19;108435;-83
2022/05/14 07:19:40;;;;;;;18.83;5.55;;;16.90;99.90;;;;;;7338960;19;109772;-82
2022/05/14 07:22:14;;;;;;;20.45;5.60;;;17.00;99.90;;;;;;7340815;19;108872;-83
2022/05/14 07:24:43;;;;;;;20.13;5.95;;;17.10;99.90;;;;;;7340029;19;107914;-82
2022/05/14 07:27:11;;;;;;;19.38;6.15;;;17.20;99.90;;;;;;7339930;19;109084;-83
2022/05/14 07:29:40;;;;;;;17.60;5.13;;;17.30;99.80;;;;;;7346043;19;107883;-83
2022/05/14 07:32:13;;;;;;;19.92;6.47;;;17.40;99.50;;;;;;7338238;19;109722;-83
2022/05/14 07:34:42;;;;;;;19.60;6.43;;;17.50;99.70;;;;;;7341147;19;108424;-83
2022/05/14 07:37:27;;;;;;;22.60;6.68;;;17.50;99.20;;;;;;7340860;19;110993;-83
2022/05/14 07:39:58;;;;;;;19.98;5.75;;;17.60;99.50;;;;;;7339585;19;109423;-83
2022/05/14 07:42:35;;;;;;;20.58;5.93;;;17.70;99.40;;;;;;7338886;19;108429;-83
2022/05/14 07:45:05;;;;;;;18.65;6.05;;;17.80;99.10;;;;;;7337020;19;108295;-82
2022/05/14 07:47:33;;;;;;;17.67;6.18;;;17.90;99.00;;;;;;7340204;19;108803;-84
2022/05/14 07:50:02;;;;;;;24.95;6.97;;;17.90;99.10;;;;;;7339690;19;108484;-84
2022/05/14 07:52:35;;;;;;;21.17;6.63;;;18.00;99.20;;;;;;7344326;19;108118;-83
2022/05/14 07:55:03;;;;;;;16.13;5.68;;;18.00;98.60;;;;;;7339418;19;108784;-83
2022/05/14 07:57:30;;;;;;;18.48;5.30;;;18.10;98.50;;;;;;7337939;19;108560;-84
2022/05/14 07:59:57;;;;;;;22.35;6.00;;;18.20;98.60;;;;;;7340280;19;109088;-84
2022/05/14 08:02:31;;;;;;;22.25;7.05;;;18.30;98.40;;;;;;7338231;19;107433;-82
2022/05/14 08:05:01;;;;;;;20.70;6.00;;;18.30;98.40;;;;;;7339603;19;111423;-83
2022/05/14 08:07:29;;;;;;;15.93;5.78;;;18.40;98.50;;;;;;7339979;19;109231;-83
2022/05/14 08:09:58;;;;;;;24.75;5.60;;;18.50;98.20;;;;;;7336638;19;107921;-84
2022/05/14 08:12:31;;;;;;;18.20;5.53;;;18.60;97.90;;;;;;7339602;19;108659;-83
2022/05/14 08:14:58;;;;;;;18.67;5.30;;;18.70;98.10;;;;;;7344687;19;108764;-83
2022/05/14 08:17:26;;;;;;;24.25;6.45;;;18.90;97.80;;;;;;7338561;19;108195;-83
2022/05/14 08:19:53;;;;;;;16.38;5.05;;;19.00;97.70;;;;;;7337552;19;109280;-83
2022/05/14 08:25:07;;;;;;;20.50;5.30;;;19.20;97.50;;;;;;7339162;19;108405;-83
2022/05/14 08:27:44;;;;;;;17.95;4.90;;;19.30;97.20;;;;;;7340612;19;109057;-83
2022/05/14 08:30:24;;;;;;;16.48;5.65;;;19.30;97.20;;;;;;7346237;19;108315;-83
2022/05/14 08:32:52;;;;;;;20.60;6.10;;;19.50;96.50;;;;;;7345249;19;107455;-84
2022/05/14 08:35:19;;;;;;;23.80;5.35;;;19.40;96.80;;;;;;7345118;19;110079;-84
2022/05/14 08:37:49;;;;;;;19.60;5.00;;;19.50;97.10;;;;;;7349987;19;108614;-84
2022/05/14 08:40:23;;;;;;;18.52;4.88;;;19.60;97.30;;;;;;7344187;19;108284;-84
2022/05/14 08:43:01;;;;;;;14.95;4.72;;;19.70;96.20;;;;;;7348333;19;108434;-84
2022/05/14 08:45:33;;;;;;;15.40;5.07;;;19.70;96.70;;;;;;7344963;19;107833;-84
2022/05/14 08:48:07;;;;;;;22.40;6.00;;;19.80;96.90;;;;;;7346669;19;108964;-84
2022/05/14 08:50:37;;;;;;;20.63;5.03;;;19.90;96.60;;;;;;7346563;19;108668;-84
2022/05/14 08:53:10;;;;;;;22.58;4.97;;;20.00;96.10;;;;;;7345458;19;110100;-85
2022/05/14 08:55:54;;;;;;;14.35;4.03;;;20.00;96.30;;;;;;7347096;19;109037;-84
2022/05/14 08:58:44;;;;;;;19.55;5.00;;;20.00;96.20;;;;;;7346558;19;108247;-85
2022/05/14 09:01:17;;;;;;;20.77;4.25;;;20.20;96.10;;;;;;7353171;19;108698;-84
2022/05/14 09:03:45;;;;;;;16.38;4.55;;;20.30;96.00;;;;;;7347044;19;108029;-86
2022/05/14 09:06:12;;;;;;;20.67;4.72;;;20.40;95.60;;;;;;7344630;19;108576;-86
2022/05/14 09:08:40;;;;;;;19.48;4.38;;;20.40;95.00;;;;;;7344046;19;109327;-84
2022/05/14 09:11:26;;;;;;;16.95;3.80;;;20.50;95.60;;;;;;7344268;19;108355;-84
2022/05/14 09:14:00;;;;;;;18.98;4.55;;;20.50;95.10;;;;;;7344649;19;108457;-85
2022/05/14 09:16:31;;;;;;;14.80;3.88;;;20.60;94.90;;;;;;7348409;19;108878;-86
2022/05/14 09:18:58;;;;;;;15.07;4.00;;;20.70;94.90;;;;;;7344020;19;107606;-86
2022/05/14 09:21:28;;;;;;;24.05;3.83;;;20.80;94.80;;;;;;7347758;19;108829;-82
2022/05/14 09:23:58;;;;;;;18.10;4.25;;;21.00;94.80;;;;;;7351947;19;110558;-82
2022/05/14 09:26:31;;;;;;;14.25;3.72;;;21.10;94.70;;;;;;7346506;19;108273;-84
2022/05/14 09:29:12;;;;;;;16.10;4.22;;;21.20;94.40;;;;;;7343584;19;108935;-85
2022/05/14 09:31:54;;;;;;;16.42;4.10;;;21.30;94.50;;;;;;7344565;19;108216;-85
2022/05/14 09:34:23;;;;;;;15.13;2.95;;;21.40;93.70;;;;;;7343352;19;108120;-85
2022/05/14 09:36:51;;;;;;;11.18;4.35;;;21.40;93.90;;;;;;7341587;19;109056;-85
2022/05/14 09:39:21;;;;;;;16.65;3.55;;;21.60;94.20;;;;;;7342189;19;107980;-85
2022/05/14 09:41:52;;;;;;;14.48;3.50;;;21.70;93.80;;;;;;7342356;19;108484;-85
2022/05/14 09:44:44;;;;;;;16.42;3.08;;;21.80;93.20;;;;;;7349770;19;108827;-86
2022/05/14 09:47:14;;;;;;;15.20;3.38;;;21.80;93.10;;;;;;7346914;19;108529;-85
2022/05/14 09:49:58;;;;;;;19.52;3.33;;;21.80;93.00;;;;;;7343992;19;108172;-85
2022/05/14 09:52:32;;;;;;;15.48;3.42;;;21.90;92.90;;;;;;7344080;19;107319;-85
2022/05/14 09:55:08;;;;;;;14.55;3.40;;;22.00;92.60;;;;;;7345939;19;108573;-85
2022/05/14 09:57:55;;;;;;;16.45;3.33;;;22.10;92.30;;;;;;7343189;19;112736;-85
2022/05/14 10:00:43;;;;;;;12.07;3.03;;;22.10;92.00;;;;;;7344358;19;107971;-85
2022/05/14 10:03:37;;;;;;;15.52;3.05;;;22.10;91.80;;;;;;7345238;19;107492;-85
2022/05/14 10:06:15;;;;;;;10.60;3.15;;;22.10;91.50;;;;;;7343096;19;108445;-85
2022/05/14 10:09:06;;;;;;;12.27;3.15;;;22.10;91.40;;;;;;7349083;19;107550;-85
2022/05/14 10:11:44;;;;;;;13.43;3.00;;;22.10;91.70;;;;;;7334710;19;109235;-83
2022/05/14 10:14:57;;;;;;;17.65;2.90;;;22.30;91.40;;;;;;7337248;19;107983;-83
2022/05/14 10:17:36;;;;;;;20.08;2.45;;;22.40;91.40;;;;;;7333929;19;107261;-83
2022/05/14 10:20:27;;;;;;;17.58;2.70;;;22.50;90.90;;;;;;7330785;19;109779;-82
2022/05/14 10:26:45;;;;;;;13.73;2.80;;;22.60;90.10;;;;;;7337226;19;109023;-84
2022/05/14 10:29:24;;;;;;;18.30;2.60;;;22.70;90.10;;;;;;7337545;19;109091;-83
2022/05/14 10:32:05;;;;;;;12.73;2.63;;;22.80;90.20;;;;;;7341190;19;111339;-82
2022/05/14 10:34:44;;;;;;;11.63;2.67;;;22.80;88.90;;;;;;7346602;19;110650;-83
2022/05/14 10:37:15;;;;;;;12.95;2.33;;;22.90;88.00;;;;;;7339886;19;108123;-82
2022/05/14 10:39:46;;;;;;;7.95;2.10;;;23.00;87.90;;;;;;7339739;19;109488;-82
2022/05/14 10:42:26;;;;;;;16.58;3.50;;;23.10;86.80;;;;;;7336408;19;111852;-83
2022/05/14 10:45:20;;;;;;;12.40;2.55;;;23.20;87.40;;;;;;7339797;19;108666;-83
2022/05/14 10:48:26;;;;;;;11.98;2.50;;;23.30;86.70;;;;;;7340865;19;107688;-82
2022/05/14 10:50:54;;;;;;;14.10;2.80;;;23.40;87.00;;;;;;7341434;19;107859;-82
2022/05/14 10:53:21;;;;;;;13.15;2.72;;;23.40;86.30;;;;;;7340244;19;107958;-82
2022/05/14 10:56:07;;;;;;;14.13;2.83;;;23.50;86.20;;;;;;7343685;19;108143;-82
2022/05/14 10:58:51;;;;;;;9.63;2.63;;;23.50;86.30;;;;;;7346706;19;109190;-82
2022/05/14 11:01:49;;;;;;;13.27;2.80;;;23.60;86.50;;;;;;7341777;19;111393;-82
2022/05/14 11:04:19;;;;;;;15.05;2.95;;;23.70;86.40;;;;;;7341812;19;109339;-82
2022/05/14 11:06:58;;;;;;;10.25;2.85;;;23.80;84.60;;;;;;7342223;19;107871;-83
2022/05/14 11:09:34;;;;;;;12.73;2.40;;;23.80;85.20;;;;;;7342689;19;108508;-82
2022/05/14 11:12:05;;;;;;;11.27;2.35;;;23.90;85.00;;;;;;7343218;19;109010;-83
2022/05/14 11:14:44;;;;;;;13.50;2.90;;;23.90;84.20;;;;;;7342889;19;107873;-82
2022/05/14 11:17:28;;;;;;;7.97;2.80;;;24.00;83.80;;;;;;7343292;19;110717;-82
2022/05/14 11:20:12;;;;;;;14.93;2.88;;;24.10;83.10;;;;;;7340893;19;109008;-82
2022/05/14 11:23:02;;;;;;;12.00;2.45;;;24.10;82.50;;;;;;7346936;19;108156;-81
2022/05/14 11:25:29;;;;;;;12.63;2.50;;;24.20;83.00;;;;;;7340243;19;112264;-83
2022/05/14 11:28:09;;;;;;;10.02;2.45;;;24.30;82.00;;;;;;7341857;19;107090;-82
2022/05/14 11:30:51;;;;;;;8.57;2.45;;;24.40;82.10;;;;;;7338556;19;108217;-81
2022/05/14 11:33:27;;;;;;;12.63;2.67;;;24.50;81.10;;;;;;7341421;19;109373;-82
2022/05/14 11:36:16;;;;;;;12.20;2.80;;;24.40;79.10;;;;;;7342019;19;108383;-82
2022/05/14 11:38:51;;;;;;;11.05;2.50;;;24.10;78.60;;;;;;7340474;19;108189;-82
2022/05/14 11:41:37;;;;;;;16.15;2.28;;;24.00;79.90;;;;;;7342785;19;109470;-82
2022/05/14 11:44:06;;;;;;;154.80;13.00;;;24.10;80.90;;;;;;7342063;19;107990;-82
2022/05/14 11:46:48;;;;;;;108.78;8.95;;;24.30;81.60;;;;;;7342998;19;112125;-83
2022/05/14 11:49:40;;;;;;;26.55;4.55;;;24.50;81.00;;;;;;7337109;19;111419;-83
2022/05/14 11:52:13;;;;;;;22.08;3.42;;;24.80;80.30;;;;;;7341898;19;111310;-84
2022/05/14 11:55:02;;;;;;;13.82;3.22;;;24.90;79.20;;;;;;7341819;19;108918;-84
2022/05/14 11:57:40;;;;;;;11.75;2.63;;;25.00;78.20;;;;;;7340843;19;112163;-85
2022/05/14 12:00:30;;;;;;;10.77;2.30;;;25.20;78.30;;;;;;7339427;19;109368;-86
2022/05/14 12:02:59;;;;;;;8.80;2.40;;;25.20;77.20;;;;;;7341254;19;109625;-86
2022/05/14 12:05:38;;;;;;;18.58;2.55;;;25.40;76.20;;;;;;7342306;19;108485;-86
2022/05/14 12:08:23;;;;;;;14.23;2.55;;;25.50;75.30;;;;;;7346057;19;108427;-85
2022/05/14 12:11:22;;;;;;;6.53;2.05;;;25.60;75.00;;;;;;7336967;19;109660;-85
2022/05/14 12:14:15;;;;;;;25.77;3.03;;;25.70;76.40;;;;;;7340078;19;107878;-84
2022/05/14 12:16:53;;;;;;;11.70;2.55;;;25.60;73.40;;;;;;7339803;19;108088;-84
2022/05/14 12:19:26;;;;;;;11.75;3.30;;;25.70;71.50;;;;;;7341257;19;107999;-85
2022/05/14 12:22:08;;;;;;;82.60;4.45;;;25.80;72.80;;;;;;7341516;19;110295;-84
2022/05/14 12:24:39;;;;;;;27.88;2.90;;;26.00;74.00;;;;;;7340544;19;109242;-84
2022/05/14 12:27:17;;;;;;;9.18;2.80;;;26.10;73.70;;;;;;7338652;19;107383;-85
2022/05/14 12:29:56;;;;;;;23.45;2.88;;;26.20;68.90;;;;;;7338901;19;108258;-86
2022/05/14 12:35:14;;;;;;;18.85;2.60;;;26.10;71.80;;;;;;7341107;19;107341;-85
2022/05/14 12:37:42;;;;;;;10.77;2.25;;;26.10;68.50;;;;;;7341343;19;108925;-86
2022/05/14 12:40:25;;;;;;;11.52;2.13;;;26.20;67.70;;;;;;7338768;19;108356;-84
2022/05/14 12:42:52;;;;;;;10.85;1.92;;;26.30;70.00;;;;;;7340439;19;107327;-85
2022/05/14 12:45:31;;;;;;;11.20;2.20;;;26.50;68.10;;;;;;7339667;19;109098;-85
2022/05/14 12:48:01;;;;;;;9.20;2.35;;;26.70;65.70;;;;;;7340922;19;108115;-87
2022/05/14 12:50:35;;;;;;;;;;;26.60;64.30;;;;;;7340008;19;108825;-87
2022/05/14 12:53:06;;;;;;;11.07;2.10;;;26.70;67.20;;;;;;7343865;19;109189;-86
2022/05/14 12:55:39;;;;;;;9.68;2.20;;;26.70;62.70;;;;;;7344866;19;107775;-86
2022/05/14 12:58:07;;;;;;;7.18;2.08;;;26.40;63.70;;;;;;7338494;19;108002;-85
2022/05/14 13:00:37;;;;;;;10.32;2.25;;;26.50;65.90;;;;;;7337543;19;107947;-85
2022/05/14 13:03:24;;;;;;;7.53;1.83;;;26.80;66.00;;;;;;7339102;19;107404;-85
2022/05/14 13:06:04;;;;;;;8.50;2.05;;;27.00;66.00;;;;;;7340519;19;112501;-86
2022/05/14 13:08:32;;;;;;;8.55;2.25;;;27.30;64.30;;;;;;7340480;19;108307;-86
2022/05/14 13:11:04;;;;;;;6.40;1.88;;;27.40;64.10;;;;;;7335906;19;108722;-85
2022/05/14 13:13:33;;;;;;;7.68;2.80;;;27.60;63.20;;;;;;7340069;19;110469;-87
2022/05/14 13:16:01;;;;;;;13.95;2.28;;;27.70;63.50;;;;;;7344230;19;108482;-88
2022/05/14 13:18:39;;;;;;;9.82;1.98;;;27.80;62.90;;;;;;7351011;19;107561;-89
2022/05/14 13:21:14;;;;;;;9.38;1.83;;;27.80;59.90;;;;;;7347064;19;107989;-87